Country
Station

 

Weather  for  McConnell Air Force Base  -  United States    United States

  
10 °C (50 °F)
    
 
 

Current METAR for McConnell Air Force Base is :

KIAB 192256Z AUTO 34008KT 8SM RA OVC060 10/08 A3010 RMK AO2 SLP199 P0004 T01000081 $

 

This is a report for McConnell Air Force Base - United States.
 
The report was made 60 minutes ago, at 22:56 UTC .
The wind was blowing at a speed of 4.1 meters per second (9.2 miles per hour) from north/northwest (340°).
 
The temperature was 10 °C (50 °F), with a dew-point at 8 °C (46 °F).
The atmospheric pressure was 1019 hPa (30.10 inHg).
The relative humidity was 87.4%.
 
The sky was overcast from a height of 1829 meter (6000 feet)
 
The overall visibility was 12.9 kilometers (8.0 miles).
 
Currently moderate rain.

 
 
 
 

Country :   A   B   C   D   E   F   G   H   I   J   K   L   M   N   O   P   Q   R   S   T   U   V   W   Y   Z

 

Site Info  |  Disclaimer  |  Credits  |  Privacy
Contact us  |  Add to favorites
© 2013-2019 METARs - All rights reserved